Time;durP1;ratioP1;P1;durP2;ratioP2;P2;SDS_P1;SDS_P2;PMS_P1;PMS_P2;Temp;Humidity;BMP_temperature;BMP_pressure;BME280_temperature;BME280_humidity;BME280_pressure;Samples;Min_cycle;Max_cycle;Signal;HPM_P1;HPM_P2
2021/10/07 00:00:40;;;;;;;2.87;2.67;;;10.10;99.90;;;;;;5033015;28;20181;-75
2021/10/07 00:03:05;;;;;;;2.73;2.13;;;9.70;99.90;;;;;;5038247;28;20363;-75
2021/10/07 00:05:31;;;;;;;2.00;1.90;;;9.80;99.90;;;;;;5030999;28;20218;-76
2021/10/07 00:07:56;;;;;;;2.00;1.90;;;9.90;99.90;;;;;;5038464;28;20331;-75
2021/10/07 00:10:22;;;;;;;2.40;2.30;;;9.80;99.90;;;;;;5034451;28;20257;-76
2021/10/07 00:12:48;;;;;;;2.43;2.23;;;9.70;99.90;;;;;;5032376;28;20235;-75
2021/10/07 00:15:13;;;;;;;2.03;1.93;;;9.70;99.90;;;;;;5040310;28;20437;-75
2021/10/07 00:17:39;;;;;;;3.60;2.10;;;9.60;99.90;;;;;;5032409;28;20187;-75
2021/10/07 00:20:07;;;;;;;2.60;2.23;;;10.00;99.90;;;;;;5034698;28;20188;-75
2021/10/07 00:22:33;;;;;;;2.45;2.25;;;9.90;99.90;;;;;;5039198;28;20191;-75
2021/10/07 00:24:58;;;;;;;2.60;2.33;;;9.60;99.90;;;;;;5032544;28;20645;-76
2021/10/07 00:27:24;;;;;;;2.40;2.20;;;9.80;99.90;;;;;;5032651;28;20198;-76
2021/10/07 00:29:56;;;;;;;2.20;2.10;;;10.00;99.90;;;;;;5030614;28;20194;-76
2021/10/07 00:40:48;;;;;;;2.08;1.95;;;10.00;99.90;;;;;;5033087;28;20325;-75
2021/10/07 00:43:14;;;;;;;2.63;2.42;;;9.70;99.90;;;;;;5038448;28;20645;-75
2021/10/07 00:45:39;;;;;;;2.60;2.40;;;9.90;99.90;;;;;;5030076;28;20211;-76
2021/10/07 00:48:05;;;;;;;2.40;2.20;;;9.80;99.90;;;;;;5033157;28;20337;-76
2021/10/07 00:50:30;;;;;;;2.40;2.20;;;9.80;99.90;;;;;;5034463;28;20190;-75
2021/10/07 00:52:56;;;;;;;2.60;2.40;;;10.00;99.90;;;;;;5033943;28;20348;-76
2021/10/07 00:55:22;;;;;;;2.00;1.90;;;9.80;99.90;;;;;;5034033;28;20191;-76
2021/10/07 00:57:47;;;;;;;2.10;1.90;;;9.60;99.90;;;;;;5030338;28;20198;-76
2021/10/07 01:00:14;;;;;;;2.37;2.27;;;9.70;99.90;;;;;;5030712;28;20194;-75
2021/10/07 01:02:40;;;;;;;2.33;2.13;;;9.70;99.90;;;;;;5037062;28;20204;-76
2021/10/07 01:05:06;;;;;;;3.80;2.97;;;9.90;99.90;;;;;;5032463;28;20231;-75
2021/10/07 01:07:32;;;;;;;2.60;2.40;;;9.50;99.90;;;;;;5030425;28;20488;-75
2021/10/07 01:09:57;;;;;;;2.20;2.00;;;9.60;99.90;;;;;;5040788;28;20475;-75
2021/10/07 01:12:23;;;;;;;2.70;2.37;;;9.60;99.90;;;;;;5042513;28;20222;-75
2021/10/07 01:14:53;;;;;;;3.30;2.73;;;9.90;99.90;;;;;;5037928;28;20190;-75
2021/10/07 01:17:25;;;;;;;2.60;2.40;;;9.60;99.90;;;;;;5030911;28;20536;-74
2021/10/07 01:19:53;;;;;;;3.25;2.45;;;9.80;99.90;;;;;;5030947;28;20271;-75
2021/10/07 01:22:20;;;;;;;2.58;2.38;;;9.50;99.90;;;;;;5032360;28;20732;-75
2021/10/07 01:24:47;;;;;;;4.15;3.85;;;9.70;99.90;;;;;;5033724;28;20203;-75
2021/10/07 01:27:13;;;;;;;3.00;2.70;;;9.90;99.90;;;;;;5029903;28;20684;-75
2021/10/07 01:29:40;;;;;;;2.55;2.38;;;10.00;99.90;;;;;;5030106;28;20195;-76
2021/10/07 01:32:08;;;;;;;2.47;2.28;;;9.90;99.90;;;;;;5030146;28;20264;-75
2021/10/07 01:34:34;;;;;;;2.70;2.47;;;9.80;99.90;;;;;;5038054;28;20190;-76
2021/10/07 01:37:00;;;;;;;2.20;2.10;;;9.80;99.90;;;;;;5030931;28;20596;-76
2021/10/07 01:39:26;;;;;;;2.45;2.30;;;10.00;99.90;;;;;;5036009;28;20572;-75
2021/10/07 01:41:52;;;;;;;3.28;2.00;;;9.80;99.90;;;;;;5030158;28;20576;-75
2021/10/07 01:44:20;;;;;;;3.00;2.00;;;9.60;99.90;;;;;;5029882;28;20229;-75
2021/10/07 01:46:46;;;;;;;2.42;2.13;;;9.80;99.90;;;;;;5031001;28;20492;-76
2021/10/07 01:49:12;;;;;;;2.57;2.40;;;10.00;99.90;;;;;;5031988;28;20202;-76
2021/10/07 01:51:37;;;;;;;2.50;2.30;;;10.10;99.90;;;;;;5031757;28;20467;-75
2021/10/07 01:54:04;;;;;;;1.97;1.87;;;10.00;99.90;;;;;;5035737;28;20596;-76
2021/10/07 01:56:30;;;;;;;2.53;2.33;;;9.90;99.90;;;;;;5035798;28;20186;-76
2021/10/07 01:58:58;;;;;;;2.30;2.20;;;10.20;99.90;;;;;;5033457;28;20245;-76
2021/10/07 02:01:23;;;;;;;2.20;2.03;;;9.80;99.90;;;;;;5035235;28;20565;-76
2021/10/07 02:03:49;;;;;;;2.57;2.37;;;10.10;99.90;;;;;;5033819;28;20198;-76
2021/10/07 02:06:15;;;;;;;2.27;2.17;;;10.10;99.90;;;;;;5039167;28;20709;-76
2021/10/07 02:08:40;;;;;;;2.63;2.43;;;10.10;99.90;;;;;;5033401;28;20214;-75
2021/10/07 02:11:06;;;;;;;2.10;2.00;;;9.90;99.90;;;;;;5037321;28;20429;-76
2021/10/07 02:13:32;;;;;;;1.90;1.80;;;10.20;99.90;;;;;;5034969;28;20676;-75
2021/10/07 02:15:58;;;;;;;2.87;2.67;;;9.90;99.90;;;;;;5036127;28;20647;-76
2021/10/07 02:18:24;;;;;;;2.47;2.28;;;9.60;99.90;;;;;;5035024;28;20197;-76
2021/10/07 02:20:50;;;;;;;2.78;2.58;;;9.70;99.90;;;;;;5040584;28;20218;-75
2021/10/07 02:23:15;;;;;;;2.70;2.50;;;9.80;99.90;;;;;;5037980;28;20219;-76
2021/10/07 02:25:41;;;;;;;2.57;2.37;;;10.00;99.90;;;;;;5033369;28;20194;-76
2021/10/07 02:28:07;;;;;;;1.97;1.87;;;9.70;99.90;;;;;;5033296;28;20193;-75
2021/10/07 02:30:32;;;;;;;2.60;2.23;;;9.90;99.90;;;;;;5032664;28;20230;-75
2021/10/07 02:32:58;;;;;;;3.17;2.60;;;9.80;99.90;;;;;;5035970;28;20676;-76
2021/10/07 02:35:23;;;;;;;2.50;2.40;;;9.90;99.90;;;;;;5046715;28;20817;-76
2021/10/07 02:37:49;;;;;;;2.80;2.60;;;9.90;99.90;;;;;;5032953;28;20202;-76
2021/10/07 02:40:16;;;;;;;2.33;2.20;;;9.80;99.90;;;;;;5038372;28;20269;-75
2021/10/07 02:42:43;;;;;;;2.70;2.50;;;10.00;99.90;;;;;;5052082;28;20194;-76
2021/10/07 02:45:11;;;;;;;2.50;2.30;;;9.90;99.90;;;;;;5033204;28;20307;-76
2021/10/07 02:47:38;;;;;;;2.45;2.25;;;9.90;99.90;;;;;;5034537;28;20561;-75
2021/10/07 02:50:06;;;;;;;2.35;2.13;;;9.90;99.90;;;;;;5041261;28;20190;-75
2021/10/07 02:52:32;;;;;;;2.25;2.05;;;10.00;99.90;;;;;;5038715;28;20214;-75
2021/10/07 02:54:57;;;;;;;2.87;2.57;;;9.90;99.90;;;;;;5034307;28;20198;-76
2021/10/07 02:57:23;;;;;;;2.60;2.33;;;9.90;99.90;;;;;;5036778;28;20563;-76
2021/10/07 02:59:48;;;;;;;2.10;2.00;;;9.90;99.90;;;;;;5037339;28;20179;-76
2021/10/07 03:02:15;;;;;;;3.07;2.87;;;9.80;99.90;;;;;;5040490;28;20223;-75
2021/10/07 03:04:41;;;;;;;2.05;1.95;;;9.90;99.90;;;;;;5031991;28;20195;-76
2021/10/07 03:07:10;;;;;;;2.42;2.22;;;9.90;99.90;;;;;;5036651;28;20650;-75
2021/10/07 03:09:36;;;;;;;2.53;2.33;;;9.90;99.90;;;;;;5044166;28;20232;-75
2021/10/07 03:12:02;;;;;;;2.50;2.30;;;10.00;99.90;;;;;;5032118;28;20219;-75
2021/10/07 03:14:28;;;;;;;2.40;2.08;;;10.10;99.90;;;;;;5038667;28;20187;-75
2021/10/07 03:16:53;;;;;;;2.57;2.00;;;10.10;99.90;;;;;;5039118;28;20190;-75
2021/10/07 03:19:19;;;;;;;3.07;2.27;;;10.10;99.90;;;;;;5032502;28;20274;-76
2021/10/07 03:21:44;;;;;;;3.20;2.40;;;10.30;99.90;;;;;;5033163;28;20300;-75
2021/10/07 03:24:10;;;;;;;3.57;2.50;;;9.80;99.90;;;;;;5035325;28;20669;-75
2021/10/07 03:26:35;;;;;;;3.07;2.87;;;9.90;99.90;;;;;;5032576;28;20380;-75
2021/10/07 03:29:01;;;;;;;3.37;2.43;;;9.80;99.90;;;;;;5039968;28;20703;-75
2021/10/07 03:31:27;;;;;;;2.50;2.30;;;10.00;99.90;;;;;;5032262;28;20290;-75
2021/10/07 03:33:52;;;;;;;2.30;2.10;;;9.90;99.90;;;;;;5032713;28;20183;-76
2021/10/07 03:36:18;;;;;;;2.20;2.10;;;9.80;99.90;;;;;;5038849;28;20189;-75
2021/10/07 03:38:43;;;;;;;2.50;2.30;;;9.90;99.90;;;;;;5031735;28;20189;-75
2021/10/07 03:41:09;;;;;;;2.53;2.33;;;10.10;99.90;;;;;;5038827;28;20716;-75
2021/10/07 03:43:34;;;;;;;2.10;2.00;;;9.90;99.90;;;;;;5036206;28;20171;-77
2021/10/07 03:46:00;;;;;;;3.60;2.10;;;9.60;99.90;;;;;;5035836;28;20214;-75
2021/10/07 03:48:25;;;;;;;1.90;1.80;;;9.90;99.90;;;;;;5032156;28;20681;-75
2021/10/07 03:50:51;;;;;;;2.30;2.20;;;9.80;99.90;;;;;;5034655;28;20183;-76
2021/10/07 03:53:16;;;;;;;4.83;2.80;;;10.00;99.90;;;;;;5031577;28;20744;-76
2021/10/07 03:55:43;;;;;;;3.20;2.70;;;10.10;99.90;;;;;;5033132;28;20958;-76
2021/10/07 03:58:08;;;;;;;3.83;2.60;;;9.80;99.90;;;;;;5031989;28;20724;-76
2021/10/07 04:00:34;;;;;;;3.17;2.87;;;10.00;99.90;;;;;;5031328;28;20278;-76
2021/10/07 04:03:03;;;;;;;3.73;2.67;;;9.70;99.90;;;;;;5035417;28;20780;-75
2021/10/07 04:05:29;;;;;;;2.53;2.25;;;9.90;99.90;;;;;;5031952;28;20238;-76
2021/10/07 04:07:55;;;;;;;4.17;2.67;;;9.90;99.90;;;;;;5031630;28;20673;-76
2021/10/07 04:10:20;;;;;;;2.60;2.40;;;10.10;99.90;;;;;;5033097;28;20217;-75
2021/10/07 04:12:46;;;;;;;2.80;2.60;;;10.00;99.90;;;;;;5032370;28;20211;-75
2021/10/07 04:15:11;;;;;;;4.20;2.80;;;9.80;99.90;;;;;;5033252;28;20182;-76
2021/10/07 04:17:37;;;;;;;3.30;3.00;;;9.80;99.90;;;;;;5031502;28;20179;-75
2021/10/07 04:20:04;;;;;;;3.80;2.43;;;9.70;99.90;;;;;;5033983;28;20179;-76
2021/10/07 04:22:29;;;;;;;2.65;2.25;;;9.90;99.90;;;;;;5033105;28;20646;-75
2021/10/07 04:24:56;;;;;;;3.50;2.30;;;9.80;99.90;;;;;;5041537;28;20198;-76
2021/10/07 04:27:21;;;;;;;2.55;2.30;;;10.00;99.90;;;;;;5045455;28;20573;-75
2021/10/07 04:29:47;;;;;;;2.90;2.67;;;10.10;99.90;;;;;;5040507;28;20191;-76
2021/10/07 04:32:12;;;;;;;2.33;2.13;;;9.70;99.90;;;;;;5031987;28;20555;-75
2021/10/07 04:34:38;;;;;;;2.73;2.50;;;9.90;99.90;;;;;;5031243;28;20187;-75
2021/10/07 04:37:04;;;;;;;2.90;2.70;;;10.10;99.90;;;;;;5032836;28;20176;-75
2021/10/07 04:39:29;;;;;;;2.53;2.33;;;9.90;99.90;;;;;;5033720;28;20183;-75
2021/10/07 04:41:55;;;;;;;2.93;2.63;;;9.90;99.90;;;;;;5030129;28;20442;-75
2021/10/07 04:44:21;;;;;;;2.73;2.53;;;9.80;99.90;;;;;;5032548;28;20226;-75
2021/10/07 04:46:46;;;;;;;2.40;2.20;;;9.80;99.90;;;;;;5035832;28;20183;-75
2021/10/07 04:49:12;;;;;;;2.47;2.30;;;9.90;99.90;;;;;;5034331;28;20442;-75
2021/10/07 04:51:38;;;;;;;2.30;2.20;;;9.70;99.90;;;;;;5034681;28;20238;-75
2021/10/07 04:54:03;;;;;;;2.43;2.33;;;9.90;99.90;;;;;;5039109;28;20254;-76
2021/10/07 04:56:29;;;;;;;2.77;2.47;;;10.10;99.90;;;;;;5033235;28;20179;-76
2021/10/07 04:58:54;;;;;;;2.47;2.37;;;9.80;99.90;;;;;;5031380;28;20226;-75
2021/10/07 05:01:21;;;;;;;2.60;2.40;;;10.00;99.90;;;;;;5035527;28;20194;-75
2021/10/07 05:03:47;;;;;;;3.00;2.80;;;9.90;99.90;;;;;;5035301;28;20183;-75
2021/10/07 05:06:13;;;;;;;2.55;2.35;;;9.80;99.90;;;;;;5033317;28;20311;-76
2021/10/07 05:08:38;;;;;;;2.40;2.20;;;10.00;99.90;;;;;;5033504;28;20278;-78
2021/10/07 05:11:05;;;;;;;2.77;2.50;;;9.60;99.90;;;;;;5030271;28;20186;-81
2021/10/07 05:13:31;;;;;;;3.20;2.60;;;9.90;99.90;;;;;;5031099;28;20232;-80
2021/10/07 05:15:57;;;;;;;3.65;2.67;;;9.70;99.90;;;;;;5030910;28;20183;-75
2021/10/07 05:18:22;;;;;;;2.53;2.33;;;9.90;99.90;;;;;;5032514;28;20304;-76
2021/10/07 05:20:50;;;;;;;2.67;2.47;;;9.60;99.90;;;;;;5042378;28;20186;-76
2021/10/07 05:23:16;;;;;;;2.60;2.40;;;9.80;99.90;;;;;;5039937;28;20793;-76
2021/10/07 05:25:41;;;;;;;3.70;3.47;;;9.90;99.90;;;;;;5033172;28;20333;-77
2021/10/07 05:28:07;;;;;;;3.53;3.23;;;9.90;99.90;;;;;;5041783;28;20532;-77
2021/10/07 05:30:32;;;;;;;3.70;3.40;;;9.80;99.90;;;;;;5049955;28;20201;-76
2021/10/07 05:32:58;;;;;;;3.00;2.70;;;9.70;99.90;;;;;;5038612;28;20215;-76
2021/10/07 05:35:23;;;;;;;3.17;2.87;;;10.10;99.90;;;;;;5041875;28;20182;-75
2021/10/07 05:37:49;;;;;;;2.70;2.50;;;9.90;99.90;;;;;;5039489;28;20187;-76
2021/10/07 05:40:14;;;;;;;2.87;2.67;;;10.00;99.90;;;;;;5036301;28;20218;-76
2021/10/07 05:42:40;;;;;;;3.00;2.80;;;10.00;99.90;;;;;;5036559;28;20262;-76
2021/10/07 05:45:09;;;;;;;2.70;2.50;;;9.90;99.90;;;;;;5040141;28;20751;-76
2021/10/07 05:47:34;;;;;;;3.03;2.75;;;9.80;99.90;;;;;;5038718;28;20194;-76
2021/10/07 05:50:00;;;;;;;3.50;3.20;;;10.00;99.90;;;;;;5043959;28;20197;-76
2021/10/07 05:52:26;;;;;;;2.73;2.53;;;9.80;99.90;;;;;;5044612;28;20556;-76
2021/10/07 05:54:51;;;;;;;2.60;2.40;;;10.20;99.90;;;;;;5041376;28;20316;-76
2021/10/07 05:57:17;;;;;;;4.60;2.80;;;10.00;99.90;;;;;;5037610;28;20245;-76
2021/10/07 05:59:42;;;;;;;2.67;2.47;;;9.90;99.90;;;;;;5039874;28;20683;-76
2021/10/07 06:02:08;;;;;;;3.23;2.93;;;10.00;99.90;;;;;;5045157;28;20428;-76
2021/10/07 06:04:33;;;;;;;2.40;2.20;;;10.00;99.90;;;;;;5038986;28;20249;-76
2021/10/07 06:06:59;;;;;;;2.77;2.57;;;10.00;99.90;;;;;;5043062;28;20635;-76
2021/10/07 06:09:24;;;;;;;2.20;2.10;;;10.10;99.90;;;;;;5037909;28;20190;-76
2021/10/07 06:11:50;;;;;;;2.47;2.27;;;10.40;99.90;;;;;;5037179;28;20210;-76
2021/10/07 06:14:17;;;;;;;2.10;1.90;;;10.10;99.90;;;;;;5034748;28;20179;-76
2021/10/07 06:16:43;;;;;;;2.45;2.25;;;10.00;99.90;;;;;;5032842;28;20202;-76
2021/10/07 06:19:12;;;;;;;2.63;2.43;;;10.00;99.90;;;;;;5038201;28;20186;-76
2021/10/07 06:21:38;;;;;;;3.10;2.78;;;10.10;99.90;;;;;;5044521;28;20653;-76
2021/10/07 06:24:04;;;;;;;3.50;3.20;;;10.20;99.90;;;;;;5051908;28;20193;-76
2021/10/07 06:26:30;;;;;;;2.95;2.70;;;10.30;99.90;;;;;;5040433;28;20198;-76
2021/10/07 06:28:56;;;;;;;3.00;2.50;;;10.50;99.90;;;;;;5036591;28;20183;-76
2021/10/07 06:31:21;;;;;;;2.70;2.50;;;10.40;99.90;;;;;;5041847;28;20688;-76
2021/10/07 06:33:47;;;;;;;3.60;2.90;;;10.40;99.90;;;;;;5036201;28;20187;-76
2021/10/07 06:36:13;;;;;;;2.85;2.65;;;10.40;99.90;;;;;;5037932;28;20210;-76
2021/10/07 06:38:39;;;;;;;2.33;2.20;;;10.60;99.90;;;;;;5040903;28;20250;-76
2021/10/07 06:41:05;;;;;;;2.40;2.20;;;10.60;99.90;;;;;;5033792;28;20188;-76
2021/10/07 06:43:30;;;;;;;2.87;2.67;;;10.60;99.90;;;;;;5037945;28;20314;-76
2021/10/07 06:45:55;;;;;;;2.60;2.40;;;11.10;99.90;;;;;;5040361;28;20206;-76
2021/10/07 06:48:21;;;;;;;3.10;2.90;;;11.00;99.90;;;;;;5040797;28;20838;-76
2021/10/07 06:50:47;;;;;;;3.40;3.20;;;11.00;99.90;;;;;;5040308;28;20179;-76
2021/10/07 06:53:13;;;;;;;3.70;3.40;;;11.00;99.90;;;;;;5033559;28;20673;-76
2021/10/07 06:55:39;;;;;;;2.83;2.63;;;11.10;99.90;;;;;;5037814;28;20179;-76
2021/10/07 06:58:06;;;;;;;2.80;2.60;;;11.10;99.90;;;;;;5035232;28;20673;-76
2021/10/07 07:00:32;;;;;;;2.83;2.63;;;11.20;99.90;;;;;;5035759;28;20193;-76
2021/10/07 07:02:58;;;;;;;3.00;2.80;;;11.00;99.90;;;;;;5036490;28;20191;-76
2021/10/07 07:05:25;;;;;;;2.55;2.35;;;11.20;99.90;;;;;;5035267;28;20253;-76
2021/10/07 07:07:50;;;;;;;2.60;2.40;;;11.30;99.90;;;;;;5039321;28;20194;-76
2021/10/07 07:10:19;;;;;;;2.23;2.13;;;11.10;99.90;;;;;;5041756;28;20245;-76
2021/10/07 07:12:47;;;;;;;2.80;2.47;;;11.20;99.90;;;;;;5037360;28;20238;-76
2021/10/07 07:15:13;;;;;;;2.80;2.60;;;11.70;99.90;;;;;;5032450;28;20333;-76
2021/10/07 07:17:38;;;;;;;2.57;2.37;;;11.60;99.90;;;;;;5033993;28;20262;-76
2021/10/07 07:20:05;;;;;;;2.77;2.47;;;11.70;99.90;;;;;;5039469;28;20467;-76
2021/10/07 07:22:30;;;;;;;3.33;3.00;;;11.80;99.90;;;;;;5030113;28;20196;-76
2021/10/07 07:24:56;;;;;;;4.00;3.60;;;11.50;99.90;;;;;;5045758;28;20188;-76
2021/10/07 07:27:22;;;;;;;4.40;4.00;;;11.80;99.90;;;;;;5032058;28;20274;-79
2021/10/07 07:29:48;;;;;;;3.90;3.60;;;12.20;99.90;;;;;;5031883;28;20187;-80
2021/10/07 07:32:14;;;;;;;5.97;4.33;;;12.10;99.90;;;;;;5035930;28;20626;-80
2021/10/07 07:34:40;;;;;;;5.40;4.93;;;12.00;99.90;;;;;;5032013;28;20594;-77
2021/10/07 07:37:05;;;;;;;4.80;4.40;;;12.30;99.90;;;;;;5034792;28;20183;-77
2021/10/07 07:39:31;;;;;;;8.33;7.03;;;12.20;99.90;;;;;;5035683;28;20187;-77
2021/10/07 07:41:56;;;;;;;6.50;5.87;;;12.40;99.90;;;;;;5031009;28;20289;-76
2021/10/07 07:44:22;;;;;;;7.47;6.63;;;12.70;99.90;;;;;;5031396;28;20664;-77
2021/10/07 07:46:48;;;;;;;6.00;5.37;;;12.80;99.90;;;;;;5035106;28;20200;-76
2021/10/07 07:49:13;;;;;;;9.00;8.20;;;12.60;99.90;;;;;;5039343;28;20183;-76
2021/10/07 07:51:39;;;;;;;8.57;7.77;;;13.00;99.90;;;;;;5030800;28;20469;-77
2021/10/07 07:54:04;;;;;;;8.93;8.03;;;12.90;99.90;;;;;;5030823;28;20187;-76
2021/10/07 07:56:30;;;;;;;8.50;7.80;;;13.10;99.90;;;;;;5031111;28;20192;-76
2021/10/07 07:58:55;;;;;;;8.20;7.40;;;13.30;99.90;;;;;;5031307;28;20279;-77
2021/10/07 08:01:22;;;;;;;8.47;7.67;;;13.30;99.90;;;;;;5034985;28;20186;-76
2021/10/07 08:03:47;;;;;;;6.77;6.17;;;13.50;99.90;;;;;;5039527;28;20233;-77
2021/10/07 08:06:13;;;;;;;8.30;7.50;;;13.70;99.90;;;;;;5033120;28;20478;-76
2021/10/07 08:08:38;;;;;;;7.90;7.20;;;13.80;99.90;;;;;;5031280;28;20226;-77
2021/10/07 08:11:04;;;;;;;9.97;8.20;;;14.20;99.90;;;;;;5028824;28;20179;-76
2021/10/07 08:13:29;;;;;;;7.73;6.90;;;14.00;99.90;;;;;;5030960;28;20286;-76
2021/10/07 08:15:55;;;;;;;8.13;7.33;;;14.30;99.90;;;;;;5030550;28;20183;-76
2021/10/07 08:18:21;;;;;;;8.70;7.10;;;14.60;99.90;;;;;;5030846;28;20195;-76
2021/10/07 08:20:47;;;;;;;9.00;6.63;;;14.40;99.90;;;;;;5031212;28;20191;-77
2021/10/07 08:23:13;;;;;;;6.93;5.90;;;15.00;99.90;;;;;;5030231;28;20194;-76
2021/10/07 08:25:40;;;;;;;8.33;7.40;;;15.00;99.90;;;;;;5030835;28;20448;-77
2021/10/07 08:28:08;;;;;;;6.00;5.43;;;15.10;99.90;;;;;;5030475;28;20445;-77
2021/10/07 08:30:34;;;;;;;8.80;5.83;;;15.10;99.90;;;;;;5030877;28;20457;-77
2021/10/07 08:33:00;;;;;;;6.90;6.20;;;14.90;99.90;;;;;;5038074;28;20501;-77
2021/10/07 08:35:26;;;;;;;6.67;6.00;;;15.20;99.90;;;;;;5031871;28;20468;-77
2021/10/07 08:37:51;;;;;;;8.53;5.93;;;14.60;99.90;;;;;;5030582;28;20646;-77
2021/10/07 08:40:17;;;;;;;6.63;5.90;;;14.90;99.90;;;;;;5031050;28;20233;-76
2021/10/07 08:42:43;;;;;;;7.40;6.70;;;14.50;99.90;;;;;;5030695;28;20179;-77
2021/10/07 08:45:12;;;;;;;6.70;6.10;;;14.60;99.90;;;;;;5030503;28;20206;-77
2021/10/07 08:47:40;;;;;;;7.20;5.50;;;14.60;99.90;;;;;;5030634;28;20433;-76
2021/10/07 08:50:07;;;;;;;6.23;5.73;;;14.90;99.90;;;;;;5030973;28;21257;-77
2021/10/07 08:52:33;;;;;;;6.37;5.77;;;14.90;99.90;;;;;;5032559;28;20514;-77
2021/10/07 08:55:00;;;;;;;6.03;5.53;;;15.00;99.90;;;;;;5029220;28;20441;-77
2021/10/07 08:57:26;;;;;;;8.00;7.20;;;14.90;99.90;;;;;;5030561;28;20434;-77
2021/10/07 08:59:51;;;;;;;8.20;7.37;;;14.90;99.90;;;;;;5038698;28;21030;-77
2021/10/07 09:02:31;;;;;;;7.60;6.67;;;15.00;99.90;;;;;;5032947;28;20213;-76
2021/10/07 09:05:13;;;;;;;6.40;5.60;;;15.00;99.90;;;;;;5042232;28;20240;-76
2021/10/07 09:08:08;;;;;;;5.83;5.33;;;14.90;99.90;;;;;;5044812;28;20457;-76
2021/10/07 09:10:37;;;;;;;6.13;5.03;;;15.20;99.90;;;;;;5040445;28;20429;-76
2021/10/07 09:13:04;;;;;;;6.77;5.30;;;15.20;99.90;;;;;;5033968;28;20549;-76
2021/10/07 09:15:30;;;;;;;7.33;6.57;;;15.50;99.90;;;;;;5030894;28;20438;-77
2021/10/07 09:18:02;;;;;;;7.30;6.60;;;15.90;99.90;;;;;;5039698;28;20525;-76
2021/10/07 09:20:36;;;;;;;7.23;6.53;;;15.90;99.90;;;;;;5033346;28;20449;-76
2021/10/07 09:23:15;;;;;;;7.67;6.43;;;16.00;99.90;;;;;;5029635;28;20438;-76
2021/10/07 09:25:59;;;;;;;7.00;6.40;;;16.30;99.90;;;;;;5034989;28;20524;-76
2021/10/07 09:28:28;;;;;;;5.60;5.10;;;16.60;99.90;;;;;;5029397;28;20982;-76
2021/10/07 09:30:59;;;;;;;6.77;6.27;;;16.50;95.70;;;;;;5030280;28;20778;-76
2021/10/07 09:33:40;;;;;;;5.70;5.13;;;16.90;95.30;;;;;;5035670;28;21041;-76
2021/10/07 09:36:33;;;;;;;6.63;4.30;;;16.80;94.30;;;;;;5030643;28;20444;-77
2021/10/07 09:38:59;;;;;;;6.20;5.70;;;16.70;92.80;;;;;;5035953;28;20437;-76
2021/10/07 09:41:27;;;;;;;6.03;5.47;;;16.20;85.90;;;;;;5041638;28;20429;-76
2021/10/07 09:44:01;;;;;;;6.70;6.00;;;16.30;90.90;;;;;;5033316;28;20877;-76
2021/10/07 09:46:45;;;;;;;5.30;4.90;;;16.50;90.40;;;;;;5035064;28;20515;-76
2021/10/07 09:49:16;;;;;;;6.53;5.93;;;16.70;90.90;;;;;;5031115;28;20468;-76
2021/10/07 09:51:48;;;;;;;6.03;5.43;;;16.70;88.50;;;;;;5032491;28;20547;-76
2021/10/07 09:54:19;;;;;;;5.40;4.90;;;16.90;87.30;;;;;;5036552;28;20434;-74
2021/10/07 09:56:57;;;;;;;6.00;4.67;;;16.80;85.30;;;;;;5039704;28;20472;-76
2021/10/07 09:59:24;;;;;;;5.70;5.20;;;17.00;82.40;;;;;;5032451;28;20437;-76
2021/10/07 10:01:52;;;;;;;6.30;5.70;;;17.00;77.80;;;;;;5041506;28;20820;-76
2021/10/07 10:04:19;;;;;;;6.47;5.97;;;17.20;79.40;;;;;;5035908;28;20437;-76
2021/10/07 10:06:44;;;;;;;4.80;4.40;;;16.90;75.70;;;;;;5036208;28;20559;-77
2021/10/07 10:09:10;;;;;;;6.53;6.03;;;17.00;79.30;;;;;;5036864;28;20916;-76
2021/10/07 10:11:36;;;;;;;6.83;6.23;;;17.00;79.00;;;;;;5032371;28;20206;-76
2021/10/07 10:14:02;;;;;;;7.23;6.60;;;17.00;78.90;;;;;;5033449;28;20183;-76
2021/10/07 10:16:29;;;;;;;7.27;6.37;;;16.70;75.90;;;;;;5037722;28;20180;-76
2021/10/07 10:18:59;;;;;;;7.00;6.40;;;16.80;78.30;;;;;;5043537;28;20445;-76
2021/10/07 10:21:27;;;;;;;6.17;5.57;;;16.50;79.10;;;;;;5034919;28;20947;-76
2021/10/07 10:23:54;;;;;;;5.90;5.40;;;16.40;79.70;;;;;;5037128;28;20479;-76
2021/10/07 10:26:20;;;;;;;6.00;5.50;;;16.90;81.00;;;;;;5038002;28;20522;-76
2021/10/07 10:28:51;;;;;;;5.20;4.80;;;16.70;79.00;;;;;;5035073;28;20906;-76
2021/10/07 10:31:27;;;;;;;5.50;5.10;;;16.60;78.70;;;;;;5042919;28;20665;-76
2021/10/07 10:34:07;;;;;;;5.33;4.93;;;16.80;78.80;;;;;;5037251;28;20429;-77
2021/10/07 10:36:37;;;;;;;5.57;5.07;;;16.80;77.00;;;;;;5033910;28;20448;-76
2021/10/07 10:39:05;;;;;;;6.67;5.77;;;16.70;78.30;;;;;;5042725;28;20436;-76
2021/10/07 10:41:54;;;;;;;5.73;5.00;;;16.90;79.10;;;;;;5035585;28;20441;-76
2021/10/07 10:44:26;;;;;;;5.80;5.30;;;16.90;79.00;;;;;;5033543;28;20960;-76
2021/10/07 10:47:07;;;;;;;10.50;9.60;;;16.80;78.80;;;;;;5032737;28;20486;-76
2021/10/07 10:49:58;;;;;;;8.67;7.93;;;16.80;78.10;;;;;;5034906;28;20549;-77
2021/10/07 10:52:40;;;;;;;9.67;8.70;;;16.80;77.70;;;;;;5040893;28;20473;-76
2021/10/07 10:55:25;;;;;;;9.13;8.33;;;16.80;77.20;;;;;;5034770;28;20433;-77
2021/10/07 10:58:05;;;;;;;9.10;8.07;;;16.80;78.10;;;;;;5032911;28;20438;-77
2021/10/07 11:00:32;;;;;;;9.10;8.30;;;16.80;78.20;;;;;;5040360;28;20436;-76
2021/10/07 11:03:19;;;;;;;10.50;9.50;;;16.80;78.70;;;;;;5041461;28;20851;-76
2021/10/07 11:06:02;;;;;;;10.33;9.30;;;16.90;76.00;;;;;;5033845;28;20499;-76
2021/10/07 11:08:29;;;;;;;7.77;7.17;;;16.80;77.20;;;;;;5036637;28;20453;-76
2021/10/07 11:10:56;;;;;;;8.90;8.10;;;17.60;77.70;;;;;;5040128;28;20441;-75
2021/10/07 11:13:29;;;;;;;9.97;8.97;;;17.90;77.60;;;;;;5035902;28;20557;-76
2021/10/07 11:15:58;;;;;;;10.90;9.30;;;18.30;75.90;;;;;;5032123;28;20477;-76
2021/10/07 11:18:33;;;;;;;8.90;8.10;;;18.60;70.50;;;;;;5038396;28;20448;-76
2021/10/07 11:21:06;;;;;;;8.50;7.80;;;18.50;68.30;;;;;;5033572;28;20536;-76
2021/10/07 11:23:35;;;;;;;8.20;7.27;;;18.30;69.30;;;;;;5028964;28;20443;-76
2021/10/07 11:26:01;;;;;;;7.77;6.97;;;18.30;69.80;;;;;;5036294;28;20459;-76
2021/10/07 11:28:29;;;;;;;7.10;6.50;;;18.10;70.00;;;;;;5037064;28;20445;-76
2021/10/07 11:31:09;;;;;;;8.30;6.20;;;18.20;70.60;;;;;;5040729;28;20541;-76
2021/10/07 11:33:57;;;;;;;7.93;7.23;;;18.30;70.70;;;;;;5039179;28;20561;-76
2021/10/07 11:36:25;;;;;;;6.77;6.23;;;18.20;69.50;;;;;;5046818;28;20450;-75
2021/10/07 11:38:53;;;;;;;7.67;7.07;;;17.90;70.20;;;;;;5038463;28;20441;-76
2021/10/07 11:41:24;;;;;;;7.90;6.50;;;17.80;69.70;;;;;;5037998;28;20815;-74
2021/10/07 11:43:51;;;;;;;7.77;6.50;;;18.00;70.80;;;;;;5036355;28;20442;-76
2021/10/07 11:46:19;;;;;;;8.60;7.70;;;17.80;71.10;;;;;;5043253;28;20477;-75
2021/10/07 11:48:45;;;;;;;6.20;5.60;;;17.40;70.80;;;;;;5032517;28;20442;-76
2021/10/07 11:51:12;;;;;;;7.57;6.93;;;17.70;72.30;;;;;;5034783;28;20805;-76
2021/10/07 11:53:42;;;;;;;6.90;6.20;;;17.10;70.50;;;;;;5033117;28;20496;-76
2021/10/07 11:56:11;;;;;;;7.80;6.23;;;16.90;71.80;;;;;;5038053;28;20434;-76
2021/10/07 11:58:37;;;;;;;6.37;5.80;;;17.20;73.40;;;;;;5034342;28;20438;-76
2021/10/07 12:01:03;;;;;;;7.30;6.47;;;16.80;73.50;;;;;;5033564;28;20443;-76
2021/10/07 12:03:31;;;;;;;7.07;6.33;;;16.70;73.80;;;;;;5039512;28;21020;-75
2021/10/07 12:06:04;;;;;;;7.73;7.03;;;17.00;74.40;;;;;;5035235;28;20470;-76
2021/10/07 12:08:35;;;;;;;11.53;8.37;;;17.30;74.40;;;;;;5037100;28;20449;-77
2021/10/07 12:11:01;;;;;;;7.97;7.17;;;17.00;73.30;;;;;;5029704;28;20433;-78
2021/10/07 12:13:38;;;;;;;9.60;6.43;;;16.60;72.20;;;;;;5030472;28;20466;-77
2021/10/07 12:16:05;;;;;;;7.50;6.80;;;16.70;74.10;;;;;;5030648;28;20434;-78
2021/10/07 12:18:33;;;;;;;6.47;5.63;;;16.50;74.40;;;;;;5030234;28;21158;-77
2021/10/07 12:21:08;;;;;;;5.80;5.30;;;16.70;74.90;;;;;;5031119;28;20438;-77
2021/10/07 12:24:13;;;;;;;5.00;4.60;;;17.00;73.50;;;;;;5030249;28;20602;-78
2021/10/07 12:26:53;;;;;;;4.87;4.50;;;16.80;74.00;;;;;;5027464;28;20446;-77
2021/10/07 12:29:32;;;;;;;5.80;5.30;;;17.20;72.70;;;;;;5030255;28;20896;-78
2021/10/07 12:31:57;;;;;;;5.20;4.70;;;17.60;71.60;;;;;;5031623;28;20484;-77
2021/10/07 12:34:29;;;;;;;5.37;4.87;;;18.00;70.90;;;;;;5037590;28;20434;-77
2021/10/07 12:36:57;;;;;;;6.27;5.77;;;17.70;67.80;;;;;;5029415;28;20241;-77
2021/10/07 12:39:34;;;;;;;6.87;6.27;;;17.60;68.00;;;;;;5030175;28;20924;-77
2021/10/07 12:42:08;;;;;;;5.20;4.70;;;17.80;69.10;;;;;;5030940;28;20418;-77
2021/10/07 12:44:51;;;;;;;5.20;4.40;;;17.50;69.40;;;;;;5029705;28;20445;-76
2021/10/07 12:47:27;;;;;;;4.90;4.50;;;17.60;70.30;;;;;;5030069;28;20445;-79
2021/10/07 12:49:56;;;;;;;5.00;4.60;;;18.00;70.80;;;;;;5030036;28;20464;-76
2021/10/07 12:52:41;;;;;;;5.43;4.97;;;18.10;70.80;;;;;;5030435;28;20810;-76
2021/10/07 12:55:15;;;;;;;5.53;4.70;;;18.40;70.00;;;;;;5030002;28;20447;-77
2021/10/07 12:57:48;;;;;;;5.07;4.67;;;18.30;64.40;;;;;;5030460;28;20516;-77
2021/10/07 13:00:32;;;;;;;5.00;4.60;;;18.70;64.40;;;;;;5029483;28;20420;-77
2021/10/07 13:03:19;;;;;;;4.40;4.00;;;18.70;64.30;;;;;;5030722;28;20825;-78